sensor_id;sensor_type;location;lat;lon;timestamp;temperature;humidity
40249;DHT22;25969;49.970;11.062;2024-03-23T05:01:11;9.70;99.90
40249;DHT22;25969;49.970;11.062;2024-03-23T05:11:12;9.70;99.90
40249;DHT22;25969;49.970;11.062;2024-03-23T05:21:12;10.00;99.90
40249;DHT22;25969;49.970;11.062;2024-03-23T05:31:22;10.20;99.90
40249;DHT22;25969;49.970;11.062;2024-03-23T05:41:22;10.50;99.90
40249;DHT22;25969;49.970;11.062;2024-03-23T05:51:24;10.50;99.90
40249;DHT22;25969;49.970;11.062;2024-03-23T06:01:25;10.80;99.90
40249;DHT22;25969;49.970;11.062;2024-03-23T06:11:29;11.20;99.90
40249;DHT22;25969;49.970;11.062;2024-03-23T06:21:29;10.80;99.90
40249;DHT22;25969;49.970;11.062;2024-03-23T06:31:30;10.80;99.90
40249;DHT22;25969;49.970;11.062;2024-03-23T06:41:31;10.90;99.90
40249;DHT22;25969;49.970;11.062;2024-03-23T06:51:31;10.70;99.90
40249;DHT22;25969;49.970;11.062;2024-03-23T07:01:32;10.60;99.90
40249;DHT22;25969;49.970;11.062;2024-03-23T07:11:33;10.40;99.90
40249;DHT22;25969;49.970;11.062;2024-03-23T07:21:33;10.20;99.90
40249;DHT22;25969;49.970;11.062;2024-03-23T07:31:34;9.90;99.90
40249;DHT22;25969;49.970;11.062;2024-03-23T07:41:34;9.00;99.90
40249;DHT22;25969;49.970;11.062;2024-03-23T07:51:35;9.00;99.90
40249;DHT22;25969;49.970;11.062;2024-03-23T08:01:36;8.90;99.90
40249;DHT22;25969;49.970;11.062;2024-03-23T08:11:37;8.90;99.90
40249;DHT22;25969;49.970;11.062;2024-03-23T08:21:39;8.70;99.90
40249;DHT22;25969;49.970;11.062;2024-03-23T08:31:40;8.80;99.90
40249;DHT22;25969;49.970;11.062;2024-03-23T08:41:40;8.70;99.90
40249;DHT22;25969;49.970;11.062;2024-03-23T08:51:43;8.30;99.90
40249;DHT22;25969;49.970;11.062;2024-03-23T09:01:44;8.00;99.90
40249;DHT22;25969;49.970;11.062;2024-03-23T09:11:45;7.10;99.90
40249;DHT22;25969;49.970;11.062;2024-03-23T09:21:46;6.70;99.90
40249;DHT22;25969;49.970;11.062;2024-03-23T09:31:46;7.40;99.90
40249;DHT22;25969;49.970;11.062;2024-03-23T09:41:47;10.30;97.70
40249;DHT22;25969;49.970;11.062;2024-03-23T09:51:47;11.80;94.50
40249;DHT22;25969;49.970;11.062;2024-03-23T10:01:48;12.80;85.90
40249;DHT22;25969;49.970;11.062;2024-03-23T10:11:49;10.90;90.30
40249;DHT22;25969;49.970;11.062;2024-03-23T10:21:53;8.90;92.50
40249;DHT22;25969;49.970;11.062;2024-03-23T10:32:07;14.30;77.50
40249;DHT22;25969;49.970;11.062;2024-03-23T10:42:09;11.30;77.90
40249;DHT22;25969;49.970;11.062;2024-03-23T10:52:12;9.90;83.00
40249;DHT22;25969;49.970;11.062;2024-03-23T11:02:20;9.80;83.60
40249;DHT22;25969;49.970;11.062;2024-03-23T11:22:44;15.00;61.80
40249;DHT22;25969;49.970;11.062;2024-03-23T11:32:46;10.60;71.90
40249;DHT22;25969;49.970;11.062;2024-03-23T11:42:47;9.20;78.30
40249;DHT22;25969;49.970;11.062;2024-03-23T11:52:47;8.20;86.10
40249;DHT22;25969;49.970;11.062;2024-03-23T12:02:48;11.00;84.90
40249;DHT22;25969;49.970;11.062;2024-03-23T12:13:00;11.00;77.40
40249;DHT22;25969;49.970;11.062;2024-03-23T12:23:08;10.00;80.20
40249;DHT22;25969;49.970;11.062;2024-03-23T12:33:10;14.90;64.10
40249;DHT22;25969;49.970;11.062;2024-03-23T12:43:11;10.60;66.50
40249;DHT22;25969;49.970;11.062;2024-03-23T12:53:12;15.70;51.90
40249;DHT22;25969;49.970;11.062;2024-03-23T13:03:14;17.30;46.30
40249;DHT22;25969;49.970;11.062;2024-03-23T13:13:18;18.00;46.20
40249;DHT22;25969;49.970;11.062;2024-03-23T13:23:19;17.80;43.90
40249;DHT22;25969;49.970;11.062;2024-03-23T13:33:21;13.70;49.20
40249;DHT22;25969;49.970;11.062;2024-03-23T13:43:22;10.80;57.40
40249;DHT22;25969;49.970;11.062;2024-03-23T13:53:23;9.60;61.10
40249;DHT22;25969;49.970;11.062;2024-03-23T14:03:24;8.10;83.20
40249;DHT22;25969;49.970;11.062;2024-03-23T14:13:24;9.00;79.70
40249;DHT22;25969;49.970;11.062;2024-03-23T14:23:25;12.10;72.20
40249;DHT22;25969;49.970;11.062;2024-03-23T14:33:26;15.20;59.40
40249;DHT22;25969;49.970;11.062;2024-03-23T14:43:27;14.40;60.50
40249;DHT22;25969;49.970;11.062;2024-03-23T14:53:27;14.10;56.80
40249;DHT22;25969;49.970;11.062;2024-03-23T15:03:30;13.40;56.30
40249;DHT22;25969;49.970;11.062;2024-03-23T15:13:34;12.20;59.40
40249;DHT22;25969;49.970;11.062;2024-03-23T15:23:34;10.10;63.70
40249;DHT22;25969;49.970;11.062;2024-03-23T15:33:36;10.80;62.20
40249;DHT22;25969;49.970;11.062;2024-03-23T15:43:37;12.50;57.90
40249;DHT22;25969;49.970;11.062;2024-03-23T15:53:38;9.90;65.20
40249;DHT22;25969;49.970;11.062;2024-03-23T16:03:39;8.80;66.90
40249;DHT22;25969;49.970;11.062;2024-03-23T16:13:40;8.00;73.10
40249;DHT22;25969;49.970;11.062;2024-03-23T16:23:41;6.30;91.50
40249;DHT22;25969;49.970;11.062;2024-03-23T16:33:42;6.70;91.80
40249;DHT22;25969;49.970;11.062;2024-03-23T16:43:42;7.40;90.90
40249;DHT22;25969;49.970;11.062;2024-03-23T16:53:43;7.90;89.10
40249;DHT22;25969;49.970;11.062;2024-03-23T17:03:49;7.10;90.40
40249;DHT22;25969;49.970;11.062;2024-03-23T17:13:50;6.40;92.10
40249;DHT22;25969;49.970;11.062;2024-03-23T17:23:54;5.60;93.30
40249;DHT22;25969;49.970;11.062;2024-03-23T17:33:58;5.00;95.00
40249;DHT22;25969;49.970;11.062;2024-03-23T17:43:59;4.50;98.30
40249;DHT22;25969;49.970;11.062;2024-03-23T17:53:59;4.20;98.30
40249;DHT22;25969;49.970;11.062;2024-03-23T18:04:00;4.00;99.00
40249;DHT22;25969;49.970;11.062;2024-03-23T18:14:00;3.90;99.70
40249;DHT22;25969;49.970;11.062;2024-03-23T18:24:01;3.50;99.90
40249;DHT22;25969;49.970;11.062;2024-03-23T18:34:02;3.50;99.90
40249;DHT22;25969;49.970;11.062;2024-03-23T18:44:02;3.10;99.90
40249;DHT22;25969;49.970;11.062;2024-03-23T18:54:03;3.00;99.90
40249;DHT22;25969;49.970;11.062;2024-03-23T19:04:04;3.00;99.90
40249;DHT22;25969;49.970;11.062;2024-03-23T19:14:04;2.90;99.90
40249;DHT22;25969;49.970;11.062;2024-03-23T19:24:05;3.20;99.90
40249;DHT22;25969;49.970;11.062;2024-03-23T19:34:06;3.30;99.90
40249;DHT22;25969;49.970;11.062;2024-03-23T19:44:08;3.90;99.90
40249;DHT22;25969;49.970;11.062;2024-03-23T19:54:08;4.50;99.90
40249;DHT22;25969;49.970;11.062;2024-03-23T20:04:09;4.60;99.90
40249;DHT22;25969;49.970;11.062;2024-03-23T20:14:10;4.80;99.90
40249;DHT22;25969;49.970;11.062;2024-03-23T20:24:10;4.50;99.90
40249;DHT22;25969;49.970;11.062;2024-03-23T20:34:11;4.60;99.90
40249;DHT22;25969;49.970;11.062;2024-03-23T20:44:12;4.50;99.90
40249;DHT22;25969;49.970;11.062;2024-03-23T20:54:12;4.40;99.90
40249;DHT22;25969;49.970;11.062;2024-03-23T21:04:14;4.40;99.90
40249;DHT22;25969;49.970;11.062;2024-03-23T21:14:14;4.30;99.90
40249;DHT22;25969;49.970;11.062;2024-03-23T21:24:15;4.10;99.90
40249;DHT22;25969;49.970;11.062;2024-03-23T21:34:16;3.90;99.90
40249;DHT22;25969;49.970;11.062;2024-03-23T21:44:17;3.90;99.90
40249;DHT22;25969;49.970;11.062;2024-03-23T21:54:17;3.80;99.90
40249;DHT22;25969;49.970;11.062;2024-03-23T22:04:18;3.60;99.90
40249;DHT22;25969;49.970;11.062;2024-03-23T22:14:19;3.70;99.90
40249;DHT22;25969;49.970;11.062;2024-03-23T22:24:20;3.60;99.90
40249;DHT22;25969;49.970;11.062;2024-03-23T22:34:20;3.10;99.90
40249;DHT22;25969;49.970;11.062;2024-03-23T22:44:21;2.90;99.90
40249;DHT22;25969;49.970;11.062;2024-03-23T22:54:22;3.20;99.90
